sensor_id;sensor_type;location;lat;lon;timestamp;P1;durP1;ratioP1;P2;durP2;ratioP2
37280;SDS011;23169;41.804;12.596;2023-04-09T00:02:16;8.98;;;5.10;;
37280;SDS011;23169;41.804;12.596;2023-04-09T00:04:46;11.98;;;4.80;;
37280;SDS011;23169;41.804;12.596;2023-04-09T00:07:14;9.35;;;4.70;;
37280;SDS011;23169;41.804;12.596;2023-04-09T00:09:43;9.50;;;4.53;;
37280;SDS011;23169;41.804;12.596;2023-04-09T00:12:11;6.97;;;4.45;;
37280;SDS011;23169;41.804;12.596;2023-04-09T00:14:40;7.50;;;4.32;;
37280;SDS011;23169;41.804;12.596;2023-04-09T00:17:08;7.07;;;4.10;;
37280;SDS011;23169;41.804;12.596;2023-04-09T00:19:37;8.27;;;4.45;;
37280;SDS011;23169;41.804;12.596;2023-04-09T00:22:06;7.50;;;4.40;;
37280;SDS011;23169;41.804;12.596;2023-04-09T00:24:35;10.90;;;4.53;;
37280;SDS011;23169;41.804;12.596;2023-04-09T00:27:04;7.07;;;4.00;;
37280;SDS011;23169;41.804;12.596;2023-04-09T00:29:32;6.30;;;3.72;;
37280;SDS011;23169;41.804;12.596;2023-04-09T00:32:01;5.88;;;3.85;;
37280;SDS011;23169;41.804;12.596;2023-04-09T00:34:30;7.38;;;4.20;;
37280;SDS011;23169;41.804;12.596;2023-04-09T00:36:59;8.77;;;4.47;;
37280;SDS011;23169;41.804;12.596;2023-04-09T00:39:28;7.20;;;4.40;;
37280;SDS011;23169;41.804;12.596;2023-04-09T00:42:00;8.68;;;4.97;;
37280;SDS011;23169;41.804;12.596;2023-04-09T00:44:31;8.23;;;4.07;;
37280;SDS011;23169;41.804;12.596;2023-04-09T00:47:02;10.20;;;4.78;;
37280;SDS011;23169;41.804;12.596;2023-04-09T00:49:30;8.68;;;4.30;;
37280;SDS011;23169;41.804;12.596;2023-04-09T00:52:00;9.50;;;4.60;;
37280;SDS011;23169;41.804;12.596;2023-04-09T00:54:29;9.52;;;5.00;;
37280;SDS011;23169;41.804;12.596;2023-04-09T00:56:58;8.35;;;4.63;;
37280;SDS011;23169;41.804;12.596;2023-04-09T00:59:27;9.38;;;4.75;;
37280;SDS011;23169;41.804;12.596;2023-04-09T01:01:57;12.02;;;5.43;;
37280;SDS011;23169;41.804;12.596;2023-04-09T01:04:26;10.90;;;5.05;;
37280;SDS011;23169;41.804;12.596;2023-04-09T01:06:57;10.52;;;5.18;;
37280;SDS011;23169;41.804;12.596;2023-04-09T01:09:46;11.90;;;6.30;;
37280;SDS011;23169;41.804;12.596;2023-04-09T01:15:05;14.43;;;5.88;;
37280;SDS011;23169;41.804;12.596;2023-04-09T01:25:22;15.70;;;7.30;;
37280;SDS011;23169;41.804;12.596;2023-04-09T01:28:03;15.13;;;6.90;;
37280;SDS011;23169;41.804;12.596;2023-04-09T01:30:49;14.25;;;7.13;;
37280;SDS011;23169;41.804;12.596;2023-04-09T01:33:23;18.55;;;8.02;;
37280;SDS011;23169;41.804;12.596;2023-04-09T01:35:53;16.40;;;7.63;;
37280;SDS011;23169;41.804;12.596;2023-04-09T01:38:23;16.70;;;7.75;;
37280;SDS011;23169;41.804;12.596;2023-04-09T01:40:53;15.02;;;7.95;;
37280;SDS011;23169;41.804;12.596;2023-04-09T01:43:24;16.02;;;7.88;;
37280;SDS011;23169;41.804;12.596;2023-04-09T01:45:54;17.02;;;7.88;;
37280;SDS011;23169;41.804;12.596;2023-04-09T01:48:24;16.40;;;8.07;;
37280;SDS011;23169;41.804;12.596;2023-04-09T01:50:52;16.23;;;8.07;;
37280;SDS011;23169;41.804;12.596;2023-04-09T01:53:21;16.60;;;8.55;;
37280;SDS011;23169;41.804;12.596;2023-04-09T01:55:50;18.42;;;8.18;;
37280;SDS011;23169;41.804;12.596;2023-04-09T01:58:19;15.90;;;8.68;;
37280;SDS011;23169;41.804;12.596;2023-04-09T02:00:49;14.52;;;7.95;;
37280;SDS011;23169;41.804;12.596;2023-04-09T02:03:22;16.65;;;7.70;;
37280;SDS011;23169;41.804;12.596;2023-04-09T02:06:14;14.85;;;7.57;;
37280;SDS011;23169;41.804;12.596;2023-04-09T02:08:50;16.10;;;8.23;;
37280;SDS011;23169;41.804;12.596;2023-04-09T02:11:20;14.68;;;7.85;;
37280;SDS011;23169;41.804;12.596;2023-04-09T02:13:53;13.80;;;7.07;;
37280;SDS011;23169;41.804;12.596;2023-04-09T02:16:23;18.27;;;7.78;;
37280;SDS011;23169;41.804;12.596;2023-04-09T02:18:54;13.70;;;6.70;;
37280;SDS011;23169;41.804;12.596;2023-04-09T02:21:24;12.48;;;6.45;;
37280;SDS011;23169;41.804;12.596;2023-04-09T02:23:54;14.15;;;7.57;;
37280;SDS011;23169;41.804;12.596;2023-04-09T02:26:23;14.25;;;6.38;;
37280;SDS011;23169;41.804;12.596;2023-04-09T02:28:52;13.23;;;6.82;;
37280;SDS011;23169;41.804;12.596;2023-04-09T02:31:21;14.02;;;7.28;;
37280;SDS011;23169;41.804;12.596;2023-04-09T02:33:50;16.23;;;7.53;;
37280;SDS011;23169;41.804;12.596;2023-04-09T02:36:21;16.63;;;7.68;;
37280;SDS011;23169;41.804;12.596;2023-04-09T02:38:50;14.77;;;8.02;;
37280;SDS011;23169;41.804;12.596;2023-04-09T02:41:19;15.90;;;7.80;;
37280;SDS011;23169;41.804;12.596;2023-04-09T02:43:48;14.70;;;7.03;;
37280;SDS011;23169;41.804;12.596;2023-04-09T02:46:17;15.00;;;7.68;;
37280;SDS011;23169;41.804;12.596;2023-04-09T02:48:48;17.83;;;7.72;;
37280;SDS011;23169;41.804;12.596;2023-04-09T02:51:35;17.73;;;8.10;;
37280;SDS011;23169;41.804;12.596;2023-04-09T02:54:04;16.50;;;7.57;;
37280;SDS011;23169;41.804;12.596;2023-04-09T02:56:33;15.90;;;7.72;;
37280;SDS011;23169;41.804;12.596;2023-04-09T02:59:05;14.95;;;7.85;;
37280;SDS011;23169;41.804;12.596;2023-04-09T03:01:35;16.23;;;7.43;;
37280;SDS011;23169;41.804;12.596;2023-04-09T03:04:04;17.85;;;8.20;;
37280;SDS011;23169;41.804;12.596;2023-04-09T03:06:33;16.08;;;8.43;;
37280;SDS011;23169;41.804;12.596;2023-04-09T03:09:02;14.25;;;7.70;;
37280;SDS011;23169;41.804;12.596;2023-04-09T03:11:31;16.90;;;8.15;;
37280;SDS011;23169;41.804;12.596;2023-04-09T03:14:00;18.48;;;8.95;;
37280;SDS011;23169;41.804;12.596;2023-04-09T03:16:29;15.90;;;8.70;;
37280;SDS011;23169;41.804;12.596;2023-04-09T03:18:58;19.00;;;9.25;;
37280;SDS011;23169;41.804;12.596;2023-04-09T03:21:27;18.58;;;9.02;;
37280;SDS011;23169;41.804;12.596;2023-04-09T03:23:56;16.35;;;8.45;;
37280;SDS011;23169;41.804;12.596;2023-04-09T03:26:25;18.70;;;8.48;;
37280;SDS011;23169;41.804;12.596;2023-04-09T03:28:54;19.90;;;8.95;;
37280;SDS011;23169;41.804;12.596;2023-04-09T03:31:22;16.17;;;8.15;;
37280;SDS011;23169;41.804;12.596;2023-04-09T03:33:50;14.88;;;7.43;;
37280;SDS011;23169;41.804;12.596;2023-04-09T03:36:20;17.98;;;8.32;;
37280;SDS011;23169;41.804;12.596;2023-04-09T03:38:49;17.88;;;7.85;;
37280;SDS011;23169;41.804;12.596;2023-04-09T03:41:18;17.27;;;8.82;;
37280;SDS011;23169;41.804;12.596;2023-04-09T03:43:47;15.23;;;8.02;;
37280;SDS011;23169;41.804;12.596;2023-04-09T03:46:16;15.57;;;7.68;;
37280;SDS011;23169;41.804;12.596;2023-04-09T03:48:46;16.02;;;8.30;;
37280;SDS011;23169;41.804;12.596;2023-04-09T03:51:15;16.45;;;7.70;;
37280;SDS011;23169;41.804;12.596;2023-04-09T03:53:44;14.27;;;7.13;;
37280;SDS011;23169;41.804;12.596;2023-04-09T03:56:13;15.50;;;6.97;;
37280;SDS011;23169;41.804;12.596;2023-04-09T03:58:42;14.60;;;7.00;;
37280;SDS011;23169;41.804;12.596;2023-04-09T04:01:11;15.32;;;6.72;;
37280;SDS011;23169;41.804;12.596;2023-04-09T04:03:40;11.27;;;6.38;;
37280;SDS011;23169;41.804;12.596;2023-04-09T04:06:08;14.82;;;7.25;;
37280;SDS011;23169;41.804;12.596;2023-04-09T04:08:41;13.63;;;6.78;;
37280;SDS011;23169;41.804;12.596;2023-04-09T04:11:12;12.20;;;6.40;;
37280;SDS011;23169;41.804;12.596;2023-04-09T04:13:41;10.90;;;5.78;;
37280;SDS011;23169;41.804;12.596;2023-04-09T04:16:09;12.25;;;5.68;;
37280;SDS011;23169;41.804;12.596;2023-04-09T04:18:39;11.10;;;5.90;;
37280;SDS011;23169;41.804;12.596;2023-04-09T04:21:11;11.38;;;5.43;;
37280;SDS011;23169;41.804;12.596;2023-04-09T04:23:41;13.10;;;5.68;;
37280;SDS011;23169;41.804;12.596;2023-04-09T04:26:11;11.13;;;5.60;;
37280;SDS011;23169;41.804;12.596;2023-04-09T04:28:41;11.90;;;5.85;;
37280;SDS011;23169;41.804;12.596;2023-04-09T04:31:10;10.38;;;5.78;;
37280;SDS011;23169;41.804;12.596;2023-04-09T04:33:40;10.20;;;5.72;;
37280;SDS011;23169;41.804;12.596;2023-04-09T04:36:10;11.15;;;5.95;;
37280;SDS011;23169;41.804;12.596;2023-04-09T04:38:40;9.93;;;5.90;;
37280;SDS011;23169;41.804;12.596;2023-04-09T04:41:09;12.25;;;6.25;;
37280;SDS011;23169;41.804;12.596;2023-04-09T04:43:38;16.45;;;7.03;;
37280;SDS011;23169;41.804;12.596;2023-04-09T04:46:08;11.95;;;6.35;;
37280;SDS011;23169;41.804;12.596;2023-04-09T04:48:38;13.73;;;6.65;;
37280;SDS011;23169;41.804;12.596;2023-04-09T04:51:07;14.07;;;6.70;;
37280;SDS011;23169;41.804;12.596;2023-04-09T04:53:35;13.13;;;5.95;;
37280;SDS011;23169;41.804;12.596;2023-04-09T04:56:04;12.23;;;6.13;;
37280;SDS011;23169;41.804;12.596;2023-04-09T04:58:34;13.55;;;6.10;;
37280;SDS011;23169;41.804;12.596;2023-04-09T05:01:02;11.15;;;6.38;;
37280;SDS011;23169;41.804;12.596;2023-04-09T05:03:31;11.63;;;6.13;;
37280;SDS011;23169;41.804;12.596;2023-04-09T05:06:00;12.98;;;6.32;;
37280;SDS011;23169;41.804;12.596;2023-04-09T05:08:31;14.60;;;6.25;;
37280;SDS011;23169;41.804;12.596;2023-04-09T05:11:00;11.75;;;6.07;;
37280;SDS011;23169;41.804;12.596;2023-04-09T05:13:29;11.52;;;5.72;;
37280;SDS011;23169;41.804;12.596;2023-04-09T05:15:59;11.05;;;5.95;;
37280;SDS011;23169;41.804;12.596;2023-04-09T05:18:29;10.68;;;5.75;;
37280;SDS011;23169;41.804;12.596;2023-04-09T05:20:58;8.35;;;5.05;;
37280;SDS011;23169;41.804;12.596;2023-04-09T05:23:27;8.38;;;5.13;;
37280;SDS011;23169;41.804;12.596;2023-04-09T05:25:56;10.40;;;5.50;;
37280;SDS011;23169;41.804;12.596;2023-04-09T05:28:25;9.93;;;4.78;;
37280;SDS011;23169;41.804;12.596;2023-04-09T05:30:53;10.68;;;5.22;;
37280;SDS011;23169;41.804;12.596;2023-04-09T05:33:22;9.02;;;5.00;;
37280;SDS011;23169;41.804;12.596;2023-04-09T05:35:51;9.10;;;4.60;;
37280;SDS011;23169;41.804;12.596;2023-04-09T05:38:19;9.90;;;4.80;;
37280;SDS011;23169;41.804;12.596;2023-04-09T05:40:50;9.23;;;4.75;;
37280;SDS011;23169;41.804;12.596;2023-04-09T05:43:19;7.75;;;4.70;;
37280;SDS011;23169;41.804;12.596;2023-04-09T05:45:48;6.57;;;4.50;;
37280;SDS011;23169;41.804;12.596;2023-04-09T05:48:17;8.02;;;4.80;;
37280;SDS011;23169;41.804;12.596;2023-04-09T05:50:52;8.30;;;4.75;;
37280;SDS011;23169;41.804;12.596;2023-04-09T05:53:21;9.43;;;4.57;;
37280;SDS011;23169;41.804;12.596;2023-04-09T05:55:49;8.80;;;4.80;;
37280;SDS011;23169;41.804;12.596;2023-04-09T05:58:18;9.85;;;5.00;;
37280;SDS011;23169;41.804;12.596;2023-04-09T06:00:47;10.95;;;5.45;;
37280;SDS011;23169;41.804;12.596;2023-04-09T06:03:15;13.23;;;5.82;;
37280;SDS011;23169;41.804;12.596;2023-04-09T06:05:44;10.75;;;5.30;;
37280;SDS011;23169;41.804;12.596;2023-04-09T06:08:13;11.63;;;5.75;;
37280;SDS011;23169;41.804;12.596;2023-04-09T06:10:42;11.77;;;5.40;;
37280;SDS011;23169;41.804;12.596;2023-04-09T06:13:10;9.80;;;5.53;;
37280;SDS011;23169;41.804;12.596;2023-04-09T06:15:39;8.63;;;5.25;;
37280;SDS011;23169;41.804;12.596;2023-04-09T06:18:08;10.40;;;5.47;;
37280;SDS011;23169;41.804;12.596;2023-04-09T06:20:37;9.00;;;4.93;;
37280;SDS011;23169;41.804;12.596;2023-04-09T06:23:06;10.63;;;5.40;;
37280;SDS011;23169;41.804;12.596;2023-04-09T06:25:35;10.73;;;5.43;;
37280;SDS011;23169;41.804;12.596;2023-04-09T06:28:04;8.13;;;4.82;;
37280;SDS011;23169;41.804;12.596;2023-04-09T06:30:32;12.13;;;5.65;;
37280;SDS011;23169;41.804;12.596;2023-04-09T06:33:03;10.90;;;5.47;;
37280;SDS011;23169;41.804;12.596;2023-04-09T06:35:32;9.77;;;4.82;;
37280;SDS011;23169;41.804;12.596;2023-04-09T06:38:00;8.13;;;4.90;;
37280;SDS011;23169;41.804;12.596;2023-04-09T06:40:30;11.18;;;5.72;;
37280;SDS011;23169;41.804;12.596;2023-04-09T06:42:59;10.00;;;5.55;;
37280;SDS011;23169;41.804;12.596;2023-04-09T06:45:28;9.02;;;5.43;;
37280;SDS011;23169;41.804;12.596;2023-04-09T06:47:58;11.57;;;5.65;;
37280;SDS011;23169;41.804;12.596;2023-04-09T06:50:28;11.43;;;6.28;;
37280;SDS011;23169;41.804;12.596;2023-04-09T06:52:56;10.57;;;6.15;;
37280;SDS011;23169;41.804;12.596;2023-04-09T06:55:25;13.00;;;6.15;;
37280;SDS011;23169;41.804;12.596;2023-04-09T06:57:53;10.40;;;5.95;;
37280;SDS011;23169;41.804;12.596;2023-04-09T07:00:22;10.82;;;6.18;;
37280;SDS011;23169;41.804;12.596;2023-04-09T07:02:50;11.00;;;6.13;;
37280;SDS011;23169;41.804;12.596;2023-04-09T07:05:19;12.70;;;5.65;;
37280;SDS011;23169;41.804;12.596;2023-04-09T07:07:48;9.05;;;5.28;;
37280;SDS011;23169;41.804;12.596;2023-04-09T07:10:16;9.98;;;5.60;;
37280;SDS011;23169;41.804;12.596;2023-04-09T07:12:45;9.43;;;5.20;;
37280;SDS011;23169;41.804;12.596;2023-04-09T07:15:13;12.73;;;5.72;;
37280;SDS011;23169;41.804;12.596;2023-04-09T07:17:42;8.95;;;5.20;;
37280;SDS011;23169;41.804;12.596;2023-04-09T07:20:11;8.70;;;5.38;;
37280;SDS011;23169;41.804;12.596;2023-04-09T07:22:40;8.85;;;5.30;;
37280;SDS011;23169;41.804;12.596;2023-04-09T07:25:08;7.47;;;4.85;;
37280;SDS011;23169;41.804;12.596;2023-04-09T07:27:37;7.45;;;4.68;;
37280;SDS011;23169;41.804;12.596;2023-04-09T07:30:06;6.65;;;4.63;;
37280;SDS011;23169;41.804;12.596;2023-04-09T07:32:37;8.68;;;4.70;;
37280;SDS011;23169;41.804;12.596;2023-04-09T07:35:06;8.50;;;4.90;;
37280;SDS011;23169;41.804;12.596;2023-04-09T07:37:38;7.63;;;4.60;;
37280;SDS011;23169;41.804;12.596;2023-04-09T07:40:07;9.18;;;5.00;;
37280;SDS011;23169;41.804;12.596;2023-04-09T07:42:37;5.95;;;4.22;;
37280;SDS011;23169;41.804;12.596;2023-04-09T07:45:06;8.60;;;4.53;;
37280;SDS011;23169;41.804;12.596;2023-04-09T07:47:37;8.18;;;4.60;;
37280;SDS011;23169;41.804;12.596;2023-04-09T07:50:07;6.75;;;4.38;;
37280;SDS011;23169;41.804;12.596;2023-04-09T07:52:37;6.82;;;4.18;;
37280;SDS011;23169;41.804;12.596;2023-04-09T07:55:05;7.30;;;3.97;;
37280;SDS011;23169;41.804;12.596;2023-04-09T07:57:34;6.65;;;4.15;;
37280;SDS011;23169;41.804;12.596;2023-04-09T08:00:03;6.22;;;3.90;;
37280;SDS011;23169;41.804;12.596;2023-04-09T08:02:33;6.22;;;3.58;;
37280;SDS011;23169;41.804;12.596;2023-04-09T08:05:02;5.72;;;3.40;;
37280;SDS011;23169;41.804;12.596;2023-04-09T08:07:30;6.20;;;3.92;;
37280;SDS011;23169;41.804;12.596;2023-04-09T08:09:59;5.38;;;4.13;;
37280;SDS011;23169;41.804;12.596;2023-04-09T08:12:29;11.88;;;3.97;;
37280;SDS011;23169;41.804;12.596;2023-04-09T08:14:57;5.22;;;3.63;;
37280;SDS011;23169;41.804;12.596;2023-04-09T08:17:26;3.80;;;2.88;;
37280;SDS011;23169;41.804;12.596;2023-04-09T08:19:57;4.75;;;3.50;;
37280;SDS011;23169;41.804;12.596;2023-04-09T08:22:27;4.15;;;2.80;;
37280;SDS011;23169;41.804;12.596;2023-04-09T08:24:56;5.47;;;3.03;;
37280;SDS011;23169;41.804;12.596;2023-04-09T08:27:25;3.53;;;3.13;;
37280;SDS011;23169;41.804;12.596;2023-04-09T08:29:54;4.30;;;3.35;;
37280;SDS011;23169;41.804;12.596;2023-04-09T08:32:22;4.53;;;3.20;;
37280;SDS011;23169;41.804;12.596;2023-04-09T08:34:50;5.53;;;3.15;;
37280;SDS011;23169;41.804;12.596;2023-04-09T08:37:19;5.88;;;2.80;;
37280;SDS011;23169;41.804;12.596;2023-04-09T08:39:47;5.18;;;3.38;;
37280;SDS011;23169;41.804;12.596;2023-04-09T08:42:16;3.60;;;2.88;;
37280;SDS011;23169;41.804;12.596;2023-04-09T08:44:47;2.55;;;2.33;;
37280;SDS011;23169;41.804;12.596;2023-04-09T08:47:15;3.28;;;2.70;;
37280;SDS011;23169;41.804;12.596;2023-04-09T08:49:45;5.15;;;2.75;;
37280;SDS011;23169;41.804;12.596;2023-04-09T08:52:15;5.22;;;3.00;;
37280;SDS011;23169;41.804;12.596;2023-04-09T08:54:48;2.72;;;2.50;;
37280;SDS011;23169;41.804;12.596;2023-04-09T08:57:18;4.03;;;2.67;;
37280;SDS011;23169;41.804;12.596;2023-04-09T08:59:46;2.63;;;2.28;;
37280;SDS011;23169;41.804;12.596;2023-04-09T09:02:15;7.85;;;3.15;;
37280;SDS011;23169;41.804;12.596;2023-04-09T09:04:47;4.63;;;3.42;;
37280;SDS011;23169;41.804;12.596;2023-04-09T09:07:16;3.50;;;2.70;;
37280;SDS011;23169;41.804;12.596;2023-04-09T09:09:51;3.45;;;2.72;;
37280;SDS011;23169;41.804;12.596;2023-04-09T09:12:31;3.72;;;2.58;;
37280;SDS011;23169;41.804;12.596;2023-04-09T09:15:26;3.75;;;2.63;;
37280;SDS011;23169;41.804;12.596;2023-04-09T09:17:58;3.20;;;2.65;;
37280;SDS011;23169;41.804;12.596;2023-04-09T09:20:28;3.63;;;2.88;;
37280;SDS011;23169;41.804;12.596;2023-04-09T09:22:56;2.95;;;2.22;;
37280;SDS011;23169;41.804;12.596;2023-04-09T09:25:26;3.60;;;2.63;;
37280;SDS011;23169;41.804;12.596;2023-04-09T09:27:56;2.40;;;2.20;;
37280;SDS011;23169;41.804;12.596;2023-04-09T09:30:40;2.95;;;2.25;;
37280;SDS011;23169;41.804;12.596;2023-04-09T09:33:09;4.15;;;2.40;;
37280;SDS011;23169;41.804;12.596;2023-04-09T09:38:19;3.58;;;2.53;;
37280;SDS011;23169;41.804;12.596;2023-04-09T09:40:50;4.45;;;2.30;;
37280;SDS011;23169;41.804;12.596;2023-04-09T09:43:19;3.25;;;2.60;;
37280;SDS011;23169;41.804;12.596;2023-04-09T09:45:48;5.38;;;3.00;;
37280;SDS011;23169;41.804;12.596;2023-04-09T09:48:20;3.83;;;2.72;;
37280;SDS011;23169;41.804;12.596;2023-04-09T09:50:48;2.95;;;2.53;;
37280;SDS011;23169;41.804;12.596;2023-04-09T09:53:19;3.97;;;2.58;;
37280;SDS011;23169;41.804;12.596;2023-04-09T09:55:53;3.45;;;2.65;;
37280;SDS011;23169;41.804;12.596;2023-04-09T09:58:26;3.40;;;2.42;;
37280;SDS011;23169;41.804;12.596;2023-04-09T10:00:59;5.63;;;3.00;;
37280;SDS011;23169;41.804;12.596;2023-04-09T10:03:32;6.35;;;3.22;;
37280;SDS011;23169;41.804;12.596;2023-04-09T10:06:04;6.72;;;3.30;;
37280;SDS011;23169;41.804;12.596;2023-04-09T10:08:35;8.88;;;3.35;;
37280;SDS011;23169;41.804;12.596;2023-04-09T10:11:08;2.97;;;2.30;;
37280;SDS011;23169;41.804;12.596;2023-04-09T10:13:45;4.18;;;2.92;;
37280;SDS011;23169;41.804;12.596;2023-04-09T10:16:20;5.80;;;3.08;;
37280;SDS011;23169;41.804;12.596;2023-04-09T10:18:50;4.57;;;2.55;;
37280;SDS011;23169;41.804;12.596;2023-04-09T10:21:29;3.75;;;2.42;;
37280;SDS011;23169;41.804;12.596;2023-04-09T10:23:59;5.13;;;2.25;;
37280;SDS011;23169;41.804;12.596;2023-04-09T10:26:32;4.72;;;2.72;;
37280;SDS011;23169;41.804;12.596;2023-04-09T10:29:07;3.25;;;2.42;;
37280;SDS011;23169;41.804;12.596;2023-04-09T10:31:54;3.17;;;2.17;;
37280;SDS011;23169;41.804;12.596;2023-04-09T10:34:34;3.65;;;2.63;;
37280;SDS011;23169;41.804;12.596;2023-04-09T10:37:07;5.65;;;2.55;;
37280;SDS011;23169;41.804;12.596;2023-04-09T10:39:38;5.43;;;2.17;;
37280;SDS011;23169;41.804;12.596;2023-04-09T10:42:13;3.97;;;2.58;;
37280;SDS011;23169;41.804;12.596;2023-04-09T10:44:44;2.92;;;2.40;;
37280;SDS011;23169;41.804;12.596;2023-04-09T10:47:14;2.60;;;1.95;;
37280;SDS011;23169;41.804;12.596;2023-04-09T10:50:12;3.85;;;2.63;;
37280;SDS011;23169;41.804;12.596;2023-04-09T10:52:46;4.80;;;2.55;;
37280;SDS011;23169;41.804;12.596;2023-04-09T10:55:37;5.05;;;2.67;;
37280;SDS011;23169;41.804;12.596;2023-04-09T10:58:07;3.75;;;2.70;;
37280;SDS011;23169;41.804;12.596;2023-04-09T11:00:39;4.60;;;2.78;;
37280;SDS011;23169;41.804;12.596;2023-04-09T11:03:12;5.10;;;2.45;;
37280;SDS011;23169;41.804;12.596;2023-04-09T11:06:04;4.57;;;2.35;;
37280;SDS011;23169;41.804;12.596;2023-04-09T11:08:38;2.80;;;2.00;;
37280;SDS011;23169;41.804;12.596;2023-04-09T11:11:08;5.18;;;2.55;;
37280;SDS011;23169;41.804;12.596;2023-04-09T11:13:39;4.47;;;2.30;;
37280;SDS011;23169;41.804;12.596;2023-04-09T11:16:10;3.53;;;2.35;;
37280;SDS011;23169;41.804;12.596;2023-04-09T11:18:39;3.80;;;2.30;;
37280;SDS011;23169;41.804;12.596;2023-04-09T11:21:08;2.90;;;2.30;;
37280;SDS011;23169;41.804;12.596;2023-04-09T11:23:37;4.43;;;2.17;;
37280;SDS011;23169;41.804;12.596;2023-04-09T11:26:08;3.20;;;2.15;;
37280;SDS011;23169;41.804;12.596;2023-04-09T11:28:39;2.28;;;2.00;;
37280;SDS011;23169;41.804;12.596;2023-04-09T11:31:09;2.22;;;1.88;;
37280;SDS011;23169;41.804;12.596;2023-04-09T11:33:38;2.55;;;1.67;;
37280;SDS011;23169;41.804;12.596;2023-04-09T11:36:06;4.25;;;2.03;;
37280;SDS011;23169;41.804;12.596;2023-04-09T11:38:36;2.47;;;2.08;;
37280;SDS011;23169;41.804;12.596;2023-04-09T11:41:08;2.47;;;2.05;;
37280;SDS011;23169;41.804;12.596;2023-04-09T11:43:40;5.95;;;2.17;;
37280;SDS011;23169;41.804;12.596;2023-04-09T11:46:09;2.58;;;2.10;;
37280;SDS011;23169;41.804;12.596;2023-04-09T11:48:38;2.65;;;2.08;;
37280;SDS011;23169;41.804;12.596;2023-04-09T11:51:10;3.47;;;2.53;;
37280;SDS011;23169;41.804;12.596;2023-04-09T11:53:38;4.75;;;2.50;;
37280;SDS011;23169;41.804;12.596;2023-04-09T11:56:10;3.60;;;2.30;;
37280;SDS011;23169;41.804;12.596;2023-04-09T11:58:43;3.95;;;2.60;;
37280;SDS011;23169;41.804;12.596;2023-04-09T12:01:14;5.25;;;3.15;;
37280;SDS011;23169;41.804;12.596;2023-04-09T12:03:46;3.90;;;3.00;;
37280;SDS011;23169;41.804;12.596;2023-04-09T12:08:56;3.17;;;2.58;;
37280;SDS011;23169;41.804;12.596;2023-04-09T12:11:27;4.28;;;2.40;;
37280;SDS011;23169;41.804;12.596;2023-04-09T12:13:59;3.10;;;2.30;;
37280;SDS011;23169;41.804;12.596;2023-04-09T12:16:31;5.55;;;3.38;;
37280;SDS011;23169;41.804;12.596;2023-04-09T12:19:01;5.63;;;3.50;;
37280;SDS011;23169;41.804;12.596;2023-04-09T12:24:25;4.65;;;3.17;;
37280;SDS011;23169;41.804;12.596;2023-04-09T12:26:54;2.92;;;2.47;;
37280;SDS011;23169;41.804;12.596;2023-04-09T12:29:24;4.63;;;2.75;;
37280;SDS011;23169;41.804;12.596;2023-04-09T12:31:53;3.78;;;2.85;;
37280;SDS011;23169;41.804;12.596;2023-04-09T12:34:21;2.90;;;2.42;;
37280;SDS011;23169;41.804;12.596;2023-04-09T12:36:50;3.42;;;2.60;;
37280;SDS011;23169;41.804;12.596;2023-04-09T12:39:18;4.95;;;2.58;;
37280;SDS011;23169;41.804;12.596;2023-04-09T12:41:48;3.90;;;2.70;;
37280;SDS011;23169;41.804;12.596;2023-04-09T12:44:18;5.35;;;2.63;;
37280;SDS011;23169;41.804;12.596;2023-04-09T12:46:47;4.13;;;2.33;;
37280;SDS011;23169;41.804;12.596;2023-04-09T12:49:16;6.30;;;2.25;;
37280;SDS011;23169;41.804;12.596;2023-04-09T12:51:45;3.55;;;2.22;;
37280;SDS011;23169;41.804;12.596;2023-04-09T12:54:14;2.83;;;2.00;;
37280;SDS011;23169;41.804;12.596;2023-04-09T12:56:43;3.53;;;2.63;;
37280;SDS011;23169;41.804;12.596;2023-04-09T12:59:11;3.08;;;2.30;;
37280;SDS011;23169;41.804;12.596;2023-04-09T13:01:39;4.18;;;2.78;;
37280;SDS011;23169;41.804;12.596;2023-04-09T13:04:08;2.55;;;2.15;;
37280;SDS011;23169;41.804;12.596;2023-04-09T13:06:37;3.58;;;2.78;;
37280;SDS011;23169;41.804;12.596;2023-04-09T13:09:05;4.25;;;2.70;;
37280;SDS011;23169;41.804;12.596;2023-04-09T13:11:34;5.45;;;2.67;;
37280;SDS011;23169;41.804;12.596;2023-04-09T13:14:03;2.80;;;2.35;;
37280;SDS011;23169;41.804;12.596;2023-04-09T13:16:32;3.75;;;2.50;;
37280;SDS011;23169;41.804;12.596;2023-04-09T13:19:01;4.22;;;2.28;;
37280;SDS011;23169;41.804;12.596;2023-04-09T13:21:29;5.03;;;2.60;;
37280;SDS011;23169;41.804;12.596;2023-04-09T13:23:58;4.28;;;3.15;;
37280;SDS011;23169;41.804;12.596;2023-04-09T13:26:27;3.80;;;2.90;;
37280;SDS011;23169;41.804;12.596;2023-04-09T13:28:56;5.05;;;3.00;;
37280;SDS011;23169;41.804;12.596;2023-04-09T13:31:25;2.97;;;2.20;;
37280;SDS011;23169;41.804;12.596;2023-04-09T13:33:54;3.33;;;2.60;;
37280;SDS011;23169;41.804;12.596;2023-04-09T13:36:23;6.57;;;2.95;;
37280;SDS011;23169;41.804;12.596;2023-04-09T13:38:51;5.05;;;2.70;;
37280;SDS011;23169;41.804;12.596;2023-04-09T13:41:20;5.90;;;2.80;;
37280;SDS011;23169;41.804;12.596;2023-04-09T13:43:54;3.75;;;2.70;;
37280;SDS011;23169;41.804;12.596;2023-04-09T13:46:22;7.97;;;3.10;;
37280;SDS011;23169;41.804;12.596;2023-04-09T13:48:51;3.75;;;2.75;;
37280;SDS011;23169;41.804;12.596;2023-04-09T13:51:21;4.25;;;2.40;;
37280;SDS011;23169;41.804;12.596;2023-04-09T13:53:50;3.80;;;2.75;;
37280;SDS011;23169;41.804;12.596;2023-04-09T13:56:19;4.30;;;2.85;;
37280;SDS011;23169;41.804;12.596;2023-04-09T13:58:48;4.90;;;2.88;;
37280;SDS011;23169;41.804;12.596;2023-04-09T14:01:16;3.92;;;2.60;;
37280;SDS011;23169;41.804;12.596;2023-04-09T14:03:45;3.65;;;2.90;;
37280;SDS011;23169;41.804;12.596;2023-04-09T14:06:14;6.00;;;3.05;;
37280;SDS011;23169;41.804;12.596;2023-04-09T14:08:43;4.47;;;2.97;;
37280;SDS011;23169;41.804;12.596;2023-04-09T14:11:12;4.50;;;2.85;;
37280;SDS011;23169;41.804;12.596;2023-04-09T14:13:42;5.45;;;3.25;;
37280;SDS011;23169;41.804;12.596;2023-04-09T14:16:10;3.10;;;2.67;;
37280;SDS011;23169;41.804;12.596;2023-04-09T14:18:39;3.92;;;2.60;;
37280;SDS011;23169;41.804;12.596;2023-04-09T14:21:08;5.28;;;3.17;;
37280;SDS011;23169;41.804;12.596;2023-04-09T14:23:37;7.55;;;3.22;;
37280;SDS011;23169;41.804;12.596;2023-04-09T14:26:06;5.50;;;2.85;;
37280;SDS011;23169;41.804;12.596;2023-04-09T14:28:36;4.40;;;2.65;;
37280;SDS011;23169;41.804;12.596;2023-04-09T14:31:05;4.50;;;2.30;;
37280;SDS011;23169;41.804;12.596;2023-04-09T14:33:33;5.72;;;3.10;;
37280;SDS011;23169;41.804;12.596;2023-04-09T14:36:03;3.55;;;2.55;;
37280;SDS011;23169;41.804;12.596;2023-04-09T14:38:33;3.05;;;2.55;;
37280;SDS011;23169;41.804;12.596;2023-04-09T14:41:03;4.97;;;2.35;;
37280;SDS011;23169;41.804;12.596;2023-04-09T14:43:32;1.85;;;1.65;;
37280;SDS011;23169;41.804;12.596;2023-04-09T14:46:01;2.85;;;2.08;;
37280;SDS011;23169;41.804;12.596;2023-04-09T14:48:32;2.35;;;2.15;;
37280;SDS011;23169;41.804;12.596;2023-04-09T14:51:01;2.83;;;1.95;;
37280;SDS011;23169;41.804;12.596;2023-04-09T14:53:30;3.03;;;2.47;;
37280;SDS011;23169;41.804;12.596;2023-04-09T14:56:00;3.03;;;2.10;;
37280;SDS011;23169;41.804;12.596;2023-04-09T14:58:30;2.70;;;1.90;;
37280;SDS011;23169;41.804;12.596;2023-04-09T15:00:59;4.30;;;2.33;;
37280;SDS011;23169;41.804;12.596;2023-04-09T15:03:29;2.97;;;2.03;;
37280;SDS011;23169;41.804;12.596;2023-04-09T15:05:58;4.60;;;2.58;;
37280;SDS011;23169;41.804;12.596;2023-04-09T15:08:27;3.42;;;2.58;;